Time;durP1;ratioP1;P1;durP2;ratioP2;P2;SDS_P1;SDS_P2;PMS_P1;PMS_P2;Temp;Humidity;BMP_temperature;BMP_pressure;BME280_temperature;BME280_humidity;BME280_pressure;Samples;Min_cycle;Max_cycle;Signal;HPM_P1;HPM_P2
2023/06/18 00:01:04;;;;;;;17.87;16.67;;;18.00;99.30;;;;;;4932446;29;20488;-76
2023/06/18 00:03:31;;;;;;;17.47;16.37;;;18.00;99.70;;;;;;4932417;29;20458;-76
2023/06/18 00:06:00;;;;;;;18.40;17.30;;;18.00;99.80;;;;;;4932313;29;20457;-76
2023/06/18 00:08:27;;;;;;;18.90;17.67;;;17.90;99.90;;;;;;4932171;29;20476;-77
2023/06/18 00:10:53;;;;;;;19.23;17.73;;;17.90;99.90;;;;;;4932140;29;20494;-77
2023/06/18 00:13:20;;;;;;;18.40;17.20;;;17.90;99.90;;;;;;4932177;29;20564;-76
2023/06/18 00:15:47;;;;;;;17.80;16.40;;;17.80;99.90;;;;;;4932101;29;20874;-77
2023/06/18 00:18:13;;;;;;;17.57;16.00;;;17.80;99.90;;;;;;4932325;29;20496;-76
2023/06/18 00:20:40;;;;;;;17.27;16.13;;;17.70;99.90;;;;;;4932346;29;20468;-75
2023/06/18 00:23:08;;;;;;;18.27;16.93;;;17.70;99.90;;;;;;4932284;29;20465;-75
2023/06/18 00:25:36;;;;;;;16.93;15.53;;;17.60;99.90;;;;;;4932119;29;20539;-75
2023/06/18 00:28:03;;;;;;;17.80;16.47;;;17.60;99.90;;;;;;4931883;29;20454;-74
2023/06/18 00:30:30;;;;;;;18.50;17.00;;;17.50;99.90;;;;;;4932141;29;20488;-75
2023/06/18 00:32:58;;;;;;;17.30;16.00;;;17.50;99.90;;;;;;4932194;29;20454;-74
2023/06/18 00:35:25;;;;;;;18.47;17.10;;;17.50;99.90;;;;;;4932069;29;20464;-76
2023/06/18 00:37:52;;;;;;;19.00;17.60;;;17.50;99.90;;;;;;4931707;29;20496;-75
2023/06/18 00:40:20;;;;;;;17.97;16.87;;;17.50;99.90;;;;;;4932086;29;20736;-75
2023/06/18 00:42:48;;;;;;;17.90;16.60;;;17.50;99.90;;;;;;4931886;29;20464;-77
2023/06/18 00:45:16;;;;;;;19.37;17.87;;;17.40;99.90;;;;;;4932051;29;20465;-74
2023/06/18 00:47:44;;;;;;;18.60;17.30;;;17.30;99.90;;;;;;4934403;29;20817;-76
2023/06/18 00:50:14;;;;;;;17.23;16.03;;;17.40;99.90;;;;;;4935845;29;20865;-78
2023/06/18 00:52:44;;;;;;;18.70;17.17;;;17.40;99.90;;;;;;4935298;29;20881;-79
2023/06/18 00:55:12;;;;;;;17.80;16.13;;;17.30;99.90;;;;;;4935293;29;20453;-77
2023/06/18 00:57:41;;;;;;;18.40;17.20;;;17.30;99.90;;;;;;4935661;29;20484;-77
2023/06/18 01:00:11;;;;;;;17.67;16.43;;;17.30;99.90;;;;;;4936241;29;21029;-75
2023/06/18 01:02:45;;;;;;;17.80;16.60;;;17.20;99.90;;;;;;4935118;29;20453;-75
2023/06/18 01:05:12;;;;;;;18.53;17.13;;;17.30;99.90;;;;;;4936332;29;20992;-75
2023/06/18 01:07:40;;;;;;;18.43;17.20;;;17.20;99.90;;;;;;4936031;29;20457;-75
2023/06/18 01:10:08;;;;;;;18.97;17.67;;;17.10;99.90;;;;;;4936155;29;20824;-75
2023/06/18 01:12:35;;;;;;;19.13;17.83;;;17.10;99.90;;;;;;4936106;29;20524;-75
2023/06/18 01:15:04;;;;;;;16.97;15.90;;;17.10;99.90;;;;;;4935918;29;20458;-75
2023/06/18 01:17:33;;;;;;;18.23;17.03;;;17.10;99.90;;;;;;4935986;29;20454;-75
2023/06/18 01:20:09;;;;;;;17.83;16.73;;;17.00;99.90;;;;;;4936112;29;20501;-75
2023/06/18 01:22:39;;;;;;;17.83;16.63;;;17.00;99.90;;;;;;4936149;29;20466;-75
2023/06/18 01:25:08;;;;;;;18.87;17.57;;;16.90;99.90;;;;;;4936016;29;20465;-75
2023/06/18 01:27:40;;;;;;;18.40;16.93;;;16.90;99.90;;;;;;4936042;29;20453;-75
2023/06/18 01:30:10;;;;;;;19.40;17.97;;;16.80;99.90;;;;;;4935856;29;20532;-76
2023/06/18 01:32:38;;;;;;;18.53;17.27;;;16.80;99.90;;;;;;4935596;29;20789;-75
2023/06/18 01:35:05;;;;;;;18.47;17.27;;;16.80;99.90;;;;;;4935648;29;20457;-75
2023/06/18 01:37:43;;;;;;;18.00;16.83;;;16.70;99.90;;;;;;4935802;29;20464;-75
2023/06/18 01:40:23;;;;;;;18.00;16.60;;;16.70;99.90;;;;;;4935461;29;20515;-76
2023/06/18 01:42:55;;;;;;;18.70;17.30;;;16.70;99.90;;;;;;4935516;29;20865;-75
2023/06/18 01:45:27;;;;;;;19.00;17.90;;;16.60;99.90;;;;;;4935669;29;20550;-75
2023/06/18 01:47:59;;;;;;;18.37;17.17;;;16.60;99.90;;;;;;4935332;29;20454;-75
2023/06/18 01:50:27;;;;;;;18.07;16.97;;;16.60;99.90;;;;;;4935427;29;20465;-75
2023/06/18 01:52:55;;;;;;;18.53;17.10;;;16.50;99.90;;;;;;4935172;29;20501;-75
2023/06/18 01:55:23;;;;;;;18.07;16.87;;;16.50;99.90;;;;;;4935308;29;20457;-75
2023/06/18 01:57:50;;;;;;;18.83;17.63;;;16.50;99.90;;;;;;4934983;29;20457;-75
2023/06/18 02:00:16;;;;;;;17.30;16.20;;;16.50;99.90;;;;;;4934728;29;20493;-75
2023/06/18 02:02:45;;;;;;;19.20;17.90;;;16.40;99.90;;;;;;4935329;29;20461;-75
2023/06/18 02:05:11;;;;;;;18.03;16.83;;;16.30;99.90;;;;;;4935091;29;20556;-76
2023/06/18 02:07:38;;;;;;;17.60;16.50;;;16.30;99.90;;;;;;4935183;29;20453;-75
2023/06/18 02:10:05;;;;;;;18.20;16.97;;;16.30;99.90;;;;;;4934995;29;20454;-75
2023/06/18 02:12:32;;;;;;;19.57;18.23;;;16.30;99.90;;;;;;4935003;29;20449;-76
2023/06/18 02:14:59;;;;;;;17.53;16.50;;;16.30;99.90;;;;;;4935263;29;20461;-76
2023/06/18 02:17:26;;;;;;;19.17;17.63;;;16.20;99.90;;;;;;4935008;29;20493;-75
2023/06/18 02:19:54;;;;;;;19.23;17.93;;;16.20;99.90;;;;;;4934773;29;20505;-75
2023/06/18 02:22:22;;;;;;;20.47;18.93;;;16.20;99.90;;;;;;4934744;29;20479;-75
2023/06/18 02:24:49;;;;;;;19.20;17.67;;;16.10;99.90;;;;;;4934836;29;20458;-75
2023/06/18 02:27:16;;;;;;;18.30;17.00;;;16.10;99.90;;;;;;4934641;29;20967;-75
2023/06/18 02:29:42;;;;;;;18.50;17.30;;;16.10;99.90;;;;;;4934747;29;20465;-75
2023/06/18 02:32:09;;;;;;;16.50;15.50;;;16.10;99.90;;;;;;4934625;29;20469;-75
2023/06/18 02:34:36;;;;;;;20.93;19.27;;;16.10;99.90;;;;;;4934495;29;20457;-74
2023/06/18 02:37:06;;;;;;;18.67;17.27;;;16.10;99.90;;;;;;4934753;29;20948;-75
2023/06/18 02:39:33;;;;;;;21.10;19.40;;;16.10;99.90;;;;;;4934571;29;20524;-74
2023/06/18 02:42:00;;;;;;;18.70;17.27;;;16.10;99.90;;;;;;4934380;29;20457;-76
2023/06/18 02:44:28;;;;;;;19.50;18.00;;;16.10;99.90;;;;;;4934486;29;20461;-76
2023/06/18 02:46:55;;;;;;;18.70;17.33;;;16.10;99.90;;;;;;4934523;29;20453;-75
2023/06/18 02:49:21;;;;;;;18.63;17.33;;;16.00;99.90;;;;;;4934177;29;20464;-75
2023/06/18 02:51:48;;;;;;;19.03;17.70;;;16.00;99.90;;;;;;4934235;29;20477;-75
2023/06/18 02:54:16;;;;;;;17.57;16.40;;;16.00;99.90;;;;;;4934168;29;20493;-76
2023/06/18 02:56:43;;;;;;;18.03;16.83;;;16.00;99.90;;;;;;4934077;29;20531;-76
2023/06/18 02:59:10;;;;;;;18.00;16.80;;;15.90;99.90;;;;;;4934156;29;20501;-75
2023/06/18 03:01:37;;;;;;;20.57;18.93;;;15.90;99.90;;;;;;4934206;29;20457;-74
2023/06/18 03:04:04;;;;;;;19.37;18.00;;;15.90;99.90;;;;;;4934075;29;20489;-75
2023/06/18 03:06:31;;;;;;;18.47;16.90;;;15.80;99.90;;;;;;4934091;29;20467;-75
2023/06/18 03:08:58;;;;;;;18.27;17.03;;;15.80;99.90;;;;;;4933882;29;20817;-77
2023/06/18 03:11:26;;;;;;;18.80;17.60;;;15.80;99.90;;;;;;4933731;29;20540;-75
2023/06/18 03:13:53;;;;;;;18.07;16.97;;;15.80;99.90;;;;;;4934042;29;20458;-75
2023/06/18 03:16:20;;;;;;;19.37;17.83;;;15.70;99.90;;;;;;4933905;29;20457;-76
2023/06/18 03:18:47;;;;;;;19.63;18.33;;;15.70;99.90;;;;;;4933775;29;20520;-76
2023/06/18 03:21:15;;;;;;;20.50;19.07;;;15.70;99.90;;;;;;4933996;29;20454;-75
2023/06/18 03:23:41;;;;;;;19.57;18.13;;;15.70;99.90;;;;;;4933718;29;20460;-76
2023/06/18 03:26:08;;;;;;;19.57;18.13;;;15.70;99.90;;;;;;4933652;29;20453;-75
2023/06/18 03:28:36;;;;;;;20.10;18.70;;;15.80;99.90;;;;;;4933772;29;20465;-76
2023/06/18 03:31:03;;;;;;;19.60;18.20;;;15.80;99.90;;;;;;4933544;29;20457;-75
2023/06/18 03:33:30;;;;;;;18.60;17.40;;;15.70;99.90;;;;;;4933692;29;20453;-75
2023/06/18 03:35:59;;;;;;;19.10;17.80;;;15.70;99.90;;;;;;4933713;29;20822;-74
2023/06/18 03:38:26;;;;;;;19.63;18.23;;;15.60;99.90;;;;;;4933505;29;20454;-75
2023/06/18 03:40:53;;;;;;;18.80;17.50;;;15.60;99.90;;;;;;4933413;29;20501;-74
2023/06/18 03:43:20;;;;;;;19.20;17.80;;;15.50;99.90;;;;;;4933571;29;20900;-75
2023/06/18 03:45:48;;;;;;;20.37;18.87;;;15.50;99.90;;;;;;4933526;29;20943;-75
2023/06/18 03:48:15;;;;;;;20.60;19.20;;;15.50;99.90;;;;;;4933275;29;20561;-75
2023/06/18 03:50:42;;;;;;;19.50;18.10;;;15.60;99.90;;;;;;4933528;29;20449;-75
2023/06/18 03:53:08;;;;;;;21.00;19.60;;;15.60;99.90;;;;;;4933065;29;20922;-75
2023/06/18 03:55:35;;;;;;;19.57;18.20;;;15.60;99.90;;;;;;4933434;29;20798;-75
2023/06/18 03:58:02;;;;;;;18.60;17.37;;;15.60;99.90;;;;;;4933270;29;20453;-75
2023/06/18 04:00:28;;;;;;;20.10;18.50;;;15.60;99.90;;;;;;4933264;29;20509;-74
2023/06/18 04:02:56;;;;;;;19.80;18.30;;;15.70;99.90;;;;;;4933362;29;20457;-75
2023/06/18 04:05:23;;;;;;;19.90;18.40;;;15.60;99.90;;;;;;4933459;29;20449;-75
2023/06/18 04:07:49;;;;;;;20.43;19.03;;;15.70;99.90;;;;;;4933195;29;20665;-75
2023/06/18 04:10:16;;;;;;;18.33;17.17;;;15.80;99.90;;;;;;4933369;29;20486;-75
2023/06/18 04:12:43;;;;;;;19.43;18.23;;;15.80;99.90;;;;;;4933162;29;20461;-74
2023/06/18 04:15:10;;;;;;;20.80;18.97;;;15.90;99.90;;;;;;4933313;29;20856;-75
2023/06/18 04:17:41;;;;;;;20.80;19.40;;;16.00;99.90;;;;;;4933363;29;20468;-75
2023/06/18 04:20:11;;;;;;;20.07;18.57;;;16.00;99.90;;;;;;4933258;29;20496;-75
2023/06/18 04:22:37;;;;;;;19.67;18.27;;;16.00;99.90;;;;;;4935141;29;20548;-74
2023/06/18 04:25:05;;;;;;;20.43;19.13;;;16.20;99.90;;;;;;4936927;29;20824;-75
2023/06/18 04:27:32;;;;;;;19.27;17.83;;;16.40;99.90;;;;;;4937088;29;20586;-75
2023/06/18 04:29:59;;;;;;;21.13;19.73;;;16.70;99.90;;;;;;4936796;29;20464;-75
2023/06/18 04:32:26;;;;;;;19.60;18.20;;;16.90;99.90;;;;;;4936739;29;20453;-75
2023/06/18 04:34:52;;;;;;;17.90;16.70;;;17.10;99.90;;;;;;4936937;29;20450;-75
2023/06/18 04:37:20;;;;;;;20.37;18.87;;;17.40;99.90;;;;;;4936594;29;20457;-75
2023/06/18 04:39:47;;;;;;;21.90;20.40;;;17.50;99.90;;;;;;4936803;29;20492;-76
2023/06/18 04:42:14;;;;;;;19.63;18.33;;;17.80;99.90;;;;;;4936804;29;20949;-75
2023/06/18 04:44:41;;;;;;;20.60;19.10;;;18.10;99.90;;;;;;4936591;29;20461;-75
2023/06/18 04:47:08;;;;;;;19.90;18.63;;;18.20;99.90;;;;;;4936654;29;20944;-76
2023/06/18 04:49:35;;;;;;;20.13;18.73;;;18.40;99.90;;;;;;4936540;29;21104;-75
2023/06/18 04:52:02;;;;;;;20.13;18.67;;;18.50;99.90;;;;;;4936279;29;20481;-76
2023/06/18 04:54:30;;;;;;;19.67;18.37;;;18.60;99.90;;;;;;4936380;29;21035;-75
2023/06/18 04:56:57;;;;;;;18.33;17.23;;;18.80;99.90;;;;;;4936535;29;20517;-76
2023/06/18 04:59:24;;;;;;;20.07;18.57;;;18.80;99.90;;;;;;4936172;29;20460;-75
2023/06/18 05:01:51;;;;;;;19.50;18.13;;;19.00;99.90;;;;;;4936400;29;20461;-76
2023/06/18 05:04:18;;;;;;;20.30;19.00;;;19.00;99.90;;;;;;4936235;29;20460;-76
2023/06/18 05:06:45;;;;;;;19.93;18.43;;;18.90;99.90;;;;;;4936158;29;20488;-75
2023/06/18 05:09:12;;;;;;;20.20;18.67;;;18.70;99.90;;;;;;4936243;29;20457;-75
2023/06/18 05:11:40;;;;;;;20.27;18.87;;;18.60;99.90;;;;;;4935918;29;20461;-75
2023/06/18 05:14:07;;;;;;;19.43;18.17;;;18.50;99.90;;;;;;4935727;29;20545;-76
2023/06/18 05:16:34;;;;;;;20.60;19.10;;;18.20;99.90;;;;;;4936114;29;20520;-76
2023/06/18 05:19:00;;;;;;;20.40;19.00;;;18.10;99.90;;;;;;4935855;29;20456;-75
2023/06/18 05:21:27;;;;;;;18.57;17.27;;;18.10;99.90;;;;;;4935766;29;20492;-75
2023/06/18 05:23:54;;;;;;;19.43;18.33;;;18.10;99.90;;;;;;4935921;29;20461;-75
2023/06/18 05:26:21;;;;;;;19.33;18.03;;;18.10;99.90;;;;;;4935742;29;20951;-75
2023/06/18 05:28:49;;;;;;;19.47;18.20;;;18.30;99.90;;;;;;4936027;29;20454;-75
2023/06/18 05:31:16;;;;;;;19.77;18.27;;;18.40;99.90;;;;;;4935971;29;20548;-75
2023/06/18 05:33:42;;;;;;;17.13;16.13;;;18.30;99.90;;;;;;4934321;29;20457;-75
2023/06/18 05:36:09;;;;;;;18.97;17.87;;;18.50;99.90;;;;;;4935652;29;21043;-75
2023/06/18 05:38:36;;;;;;;19.70;18.30;;;18.80;99.90;;;;;;4935520;29;20963;-75
2023/06/18 05:41:02;;;;;;;20.40;19.00;;;18.90;99.90;;;;;;4935553;29;20489;-75
2023/06/18 05:43:29;;;;;;;18.47;17.27;;;19.00;99.90;;;;;;4935545;29;20936;-75
2023/06/18 05:45:58;;;;;;;18.47;17.30;;;19.20;99.90;;;;;;4935399;29;20461;-76
2023/06/18 05:48:25;;;;;;;18.20;17.00;;;19.10;99.90;;;;;;4935405;29;20571;-76
2023/06/18 05:50:52;;;;;;;18.20;16.90;;;19.20;99.90;;;;;;4935465;29;20485;-77
2023/06/18 05:53:18;;;;;;;19.20;17.77;;;19.20;99.90;;;;;;4935056;29;20991;-77
2023/06/18 05:55:45;;;;;;;17.93;16.73;;;19.20;99.90;;;;;;4935237;29;20528;-77
2023/06/18 05:58:12;;;;;;;20.50;19.30;;;19.50;99.90;;;;;;4935490;29;20461;-77
2023/06/18 06:00:38;;;;;;;19.03;17.63;;;19.60;99.10;;;;;;4934932;29;20493;-77
2023/06/18 06:03:06;;;;;;;16.97;15.77;;;19.60;99.10;;;;;;4935153;29;20467;-77
2023/06/18 06:05:33;;;;;;;17.80;16.70;;;19.70;98.40;;;;;;4935250;29;20457;-76
2023/06/18 06:08:00;;;;;;;19.27;18.00;;;19.90;97.80;;;;;;4935123;29;20453;-75
2023/06/18 06:10:27;;;;;;;18.67;17.37;;;20.00;97.60;;;;;;4934950;29;20485;-77
2023/06/18 06:12:54;;;;;;;19.57;18.20;;;20.10;97.40;;;;;;4935133;29;20469;-77
2023/06/18 06:15:22;;;;;;;19.33;17.93;;;20.40;97.30;;;;;;4934836;29;20461;-78
2023/06/18 06:17:48;;;;;;;19.63;18.30;;;20.90;96.60;;;;;;4935060;29;20461;-78
2023/06/18 06:20:16;;;;;;;19.57;18.20;;;21.30;95.80;;;;;;4934947;29;20500;-75
2023/06/18 06:22:43;;;;;;;18.70;17.47;;;21.60;95.20;;;;;;4934193;29;20529;-88
2023/06/18 06:25:10;;;;;;;20.13;18.83;;;21.90;94.20;;;;;;4935937;29;20461;-75
2023/06/18 06:27:37;;;;;;;19.33;18.13;;;22.10;93.90;;;;;;4934924;29;20848;-80
2023/06/18 06:30:05;;;;;;;19.70;18.23;;;22.30;93.30;;;;;;4931080;29;20484;-80
2023/06/18 06:32:33;;;;;;;18.90;17.70;;;22.50;92.90;;;;;;4932791;29;20461;-79
2023/06/18 06:35:00;;;;;;;19.63;17.97;;;22.80;92.60;;;;;;4934852;29;20457;-80
2023/06/18 06:37:29;;;;;;;18.43;17.07;;;23.10;91.70;;;;;;4935029;29;20453;-81
2023/06/18 06:39:56;;;;;;;19.17;17.97;;;23.40;90.60;;;;;;4934954;29;20454;-82
2023/06/18 06:42:22;;;;;;;19.10;17.90;;;23.50;90.40;;;;;;4934763;29;20466;-80
2023/06/18 06:44:49;;;;;;;17.93;16.83;;;23.70;89.50;;;;;;4934590;29;20983;-79
2023/06/18 06:47:16;;;;;;;19.20;18.00;;;24.00;88.50;;;;;;4934562;29;20497;-80
2023/06/18 06:49:44;;;;;;;18.67;17.37;;;24.30;86.70;;;;;;4934568;29;20457;-81
2023/06/18 06:52:11;;;;;;;17.80;16.80;;;24.10;87.40;;;;;;4934719;29;20481;-80
2023/06/18 06:54:39;;;;;;;19.43;18.23;;;24.10;86.40;;;;;;4934419;29;20496;-80
2023/06/18 06:57:06;;;;;;;19.10;17.80;;;24.00;86.30;;;;;;4934748;29;20453;-81
2023/06/18 06:59:33;;;;;;;17.90;16.90;;;24.00;87.40;;;;;;4934572;29;20454;-80
2023/06/18 07:01:59;;;;;;;20.27;18.87;;;24.10;85.70;;;;;;4916493;29;21144;-80
2023/06/18 07:04:26;;;;;;;18.93;17.73;;;24.50;85.60;;;;;;4915230;29;20466;-81
2023/06/18 07:06:53;;;;;;;17.73;16.63;;;24.90;83.40;;;;;;4915413;29;20553;-82
2023/06/18 07:09:20;;;;;;;17.93;16.73;;;25.40;81.50;;;;;;4915226;29;20466;-80
2023/06/18 07:11:48;;;;;;;19.27;18.03;;;25.90;79.50;;;;;;4915207;29;20941;-80
2023/06/18 07:14:15;;;;;;;20.13;18.93;;;26.20;76.70;;;;;;4915336;29;20879;-80
2023/06/18 07:16:42;;;;;;;19.20;18.10;;;26.50;75.00;;;;;;4915539;29;20481;-86
2023/06/18 07:19:09;;;;;;;18.20;17.10;;;26.60;74.80;;;;;;4915840;29;20756;-76
2023/06/18 07:21:35;;;;;;;19.47;18.37;;;26.70;73.90;;;;;;4915108;29;20932;-77
2023/06/18 07:24:02;;;;;;;18.63;17.63;;;26.60;72.60;;;;;;4915044;29;20829;-78
2023/06/18 07:26:29;;;;;;;19.70;18.50;;;26.50;73.20;;;;;;4914998;29;20458;-75
2023/06/18 07:28:57;;;;;;;19.20;18.00;;;26.50;73.30;;;;;;4915068;29;20895;-77
2023/06/18 07:31:24;;;;;;;18.70;17.60;;;26.80;73.00;;;;;;4915555;29;20461;-76
2023/06/18 07:33:51;;;;;;;18.73;17.73;;;27.00;70.70;;;;;;4913265;29;20878;-77
2023/06/18 07:36:17;;;;;;;19.23;17.93;;;27.40;66.70;;;;;;4913528;29;20463;-77
2023/06/18 07:38:44;;;;;;;19.13;17.90;;;27.50;66.70;;;;;;4913045;29;20863;-76
2023/06/18 07:41:11;;;;;;;20.20;19.00;;;28.10;65.90;;;;;;4914500;29;20517;-77
2023/06/18 07:43:39;;;;;;;18.50;17.40;;;28.60;62.20;;;;;;4914491;29;20454;-77
2023/06/18 07:46:07;;;;;;;19.40;18.20;;;28.40;60.20;;;;;;4914454;29;20466;-77
2023/06/18 07:48:34;;;;;;;19.93;18.63;;;28.60;59.00;;;;;;4914363;29;20532;-77
2023/06/18 07:51:01;;;;;;;18.23;17.23;;;29.10;57.20;;;;;;4914628;29;20465;-76
2023/06/18 07:53:27;;;;;;;19.83;18.53;;;29.30;57.30;;;;;;4914057;29;20505;-77
2023/06/18 07:55:54;;;;;;;19.87;18.67;;;29.40;58.00;;;;;;4914476;29;20514;-77
2023/06/18 07:58:21;;;;;;;20.30;18.70;;;29.80;57.70;;;;;;4917704;29;20964;-78
2023/06/18 08:00:48;;;;;;;18.50;17.50;;;30.10;56.20;;;;;;4918615;29;20498;-79
2023/06/18 08:03:16;;;;;;;18.90;17.70;;;30.50;54.50;;;;;;4918338;29;20461;-78
2023/06/18 08:05:42;;;;;;;18.77;17.80;;;30.50;54.40;;;;;;4918328;29;20466;-78
2023/06/18 08:08:09;;;;;;;19.43;18.40;;;30.60;53.80;;;;;;4917997;29;20458;-76
2023/06/18 08:10:36;;;;;;;19.70;18.40;;;30.90;53.00;;;;;;4917912;29;20770;-76
2023/06/18 08:13:03;;;;;;;18.90;17.83;;;30.60;53.00;;;;;;4917677;29;20490;-76
2023/06/18 08:15:30;;;;;;;19.80;18.77;;;31.20;52.70;;;;;;4918081;29;20458;-76
2023/06/18 08:17:57;;;;;;;20.50;19.40;;;31.40;51.20;;;;;;4918033;29;20467;-76
2023/06/18 08:20:25;;;;;;;18.83;17.73;;;31.50;51.20;;;;;;4917922;29;20806;-76
2023/06/18 08:22:51;;;;;;;18.63;17.60;;;31.80;50.20;;;;;;4917792;29;20482;-76
2023/06/18 08:25:18;;;;;;;20.10;19.00;;;32.10;49.30;;;;;;4917883;29;20461;-76
2023/06/18 08:27:45;;;;;;;18.93;17.93;;;32.30;48.30;;;;;;4917751;29;20491;-76
2023/06/18 08:30:12;;;;;;;18.77;17.53;;;32.10;48.40;;;;;;4918087;29;20450;-77
2023/06/18 08:32:38;;;;;;;18.90;18.00;;;32.40;48.40;;;;;;4917787;29;20450;-76
2023/06/18 08:35:06;;;;;;;20.17;19.17;;;33.00;46.10;;;;;;4917734;29;20536;-76
2023/06/18 08:37:34;;;;;;;19.37;18.27;;;33.20;46.10;;;;;;4917651;29;20543;-76
2023/06/18 08:40:02;;;;;;;19.47;18.37;;;33.40;45.60;;;;;;4917710;29;20956;-76
2023/06/18 08:42:29;;;;;;;20.27;19.17;;;33.90;44.40;;;;;;4917495;29;20787;-76
2023/06/18 08:44:56;;;;;;;20.30;19.27;;;34.80;42.90;;;;;;4917482;29;20493;-76
2023/06/18 08:47:23;;;;;;;19.60;18.60;;;35.80;40.90;;;;;;4917573;29;20525;-76
2023/06/18 08:49:51;;;;;;;20.00;18.80;;;36.20;40.10;;;;;;4917329;29;20454;-76
2023/06/18 08:52:20;;;;;;;20.87;19.77;;;36.70;38.40;;;;;;4917322;29;20907;-76
2023/06/18 08:54:53;;;;;;;19.80;18.70;;;37.20;37.10;;;;;;4917257;29;20521;-76
2023/06/18 08:57:27;;;;;;;20.50;19.50;;;37.50;37.40;;;;;;4917484;29;20537;-77
2023/06/18 08:59:55;;;;;;;19.93;18.93;;;38.00;36.80;;;;;;4917335;29;20477;-77
2023/06/18 09:02:24;;;;;;;19.93;18.67;;;37.70;36.90;;;;;;4917234;29;21114;-77
2023/06/18 09:04:51;;;;;;;20.73;19.83;;;38.20;35.50;;;;;;4917204;29;20458;-77
2023/06/18 09:07:20;;;;;;;18.50;17.70;;;38.80;34.40;;;;;;4916666;29;20461;-77
2023/06/18 09:09:48;;;;;;;19.73;18.80;;;38.90;32.60;;;;;;4916908;29;20509;-78
2023/06/18 09:12:15;;;;;;;20.10;19.20;;;38.40;31.70;;;;;;4917286;29;20553;-77
2023/06/18 09:14:41;;;;;;;19.73;18.83;;;38.60;31.70;;;;;;4917186;29;20454;-77
2023/06/18 09:17:08;;;;;;;19.00;18.10;;;38.60;31.40;;;;;;4917096;29;20459;-77
2023/06/18 09:19:35;;;;;;;18.00;17.00;;;37.50;31.40;;;;;;4917019;29;20879;-77
2023/06/18 09:22:13;;;;;;;18.80;17.80;;;36.80;31.00;;;;;;4916877;29;20517;-77
2023/06/18 09:24:40;;;;;;;17.93;17.00;;;36.90;31.40;;;;;;4916927;29;20516;-77
2023/06/18 09:27:09;;;;;;;17.40;16.70;;;36.50;30.10;;;;;;4916741;29;20668;-77
2023/06/18 09:29:40;;;;;;;16.70;15.97;;;36.20;29.60;;;;;;4916712;29;20647;-77
2023/06/18 09:32:08;;;;;;;18.20;17.33;;;36.00;30.10;;;;;;4916407;29;20450;-76
2023/06/18 09:34:36;;;;;;;17.83;17.03;;;36.10;30.00;;;;;;4916669;29;20458;-78
2023/06/18 09:37:05;;;;;;;17.43;16.40;;;35.50;30.60;;;;;;4916640;29;20467;-77
2023/06/18 09:39:33;;;;;;;17.37;16.47;;;34.80;30.20;;;;;;4916696;29;20454;-77
2023/06/18 09:42:06;;;;;;;17.57;16.57;;;35.20;30.20;;;;;;4916683;29;20493;-77
2023/06/18 09:44:35;;;;;;;16.90;16.10;;;36.40;29.40;;;;;;4916738;29;20454;-77
2023/06/18 09:47:03;;;;;;;17.10;16.30;;;36.20;28.70;;;;;;4916402;29;20569;-76
2023/06/18 09:49:30;;;;;;;18.20;17.30;;;36.20;28.80;;;;;;4916437;29;20459;-77
2023/06/18 09:51:56;;;;;;;16.47;15.50;;;35.80;29.20;;;;;;4916228;29;20501;-77
2023/06/18 09:54:23;;;;;;;17.40;16.60;;;36.10;29.20;;;;;;4916313;29;20482;-77
2023/06/18 09:56:58;;;;;;;17.43;16.53;;;36.50;29.50;;;;;;4916339;29;20521;-78
2023/06/18 09:59:25;;;;;;;19.00;18.10;;;37.80;28.60;;;;;;4916046;29;20569;-78
2023/06/18 10:01:54;;;;;;;18.43;17.63;;;38.90;28.20;;;;;;4915273;29;20509;-78
2023/06/18 10:04:22;;;;;;;19.23;18.33;;;39.60;27.60;;;;;;4915249;29;20870;-78
2023/06/18 10:06:52;;;;;;;18.43;17.63;;;39.00;27.10;;;;;;4914880;29;20473;-78
2023/06/18 10:09:20;;;;;;;17.40;16.60;;;37.10;27.90;;;;;;4915179;29;20451;-77
2023/06/18 10:11:50;;;;;;;17.07;16.37;;;37.10;28.80;;;;;;4915177;29;20558;-78
2023/06/18 10:14:22;;;;;;;18.37;17.50;;;38.10;27.70;;;;;;4915211;29;20470;-77
2023/06/18 10:16:51;;;;;;;19.33;18.27;;;38.90;27.00;;;;;;4915084;29;20509;-77
2023/06/18 10:19:28;;;;;;;19.27;18.47;;;40.20;26.80;;;;;;4914106;29;20458;-77
2023/06/18 10:21:58;;;;;;;17.40;16.60;;;40.30;26.30;;;;;;4914770;29;21090;-77
2023/06/18 10:24:37;;;;;;;18.90;18.00;;;40.90;25.90;;;;;;4914925;29;20458;-78
2023/06/18 10:27:05;;;;;;;18.70;17.90;;;40.40;25.70;;;;;;4914867;29;20822;-77
2023/06/18 10:29:33;;;;;;;19.07;18.17;;;38.80;26.50;;;;;;4914839;29;20463;-77
2023/06/18 10:32:01;;;;;;;19.00;18.10;;;38.00;27.40;;;;;;4914819;29;20450;-77
2023/06/18 10:34:30;;;;;;;18.67;17.90;;;38.40;27.80;;;;;;4914832;29;20521;-77
2023/06/18 10:36:59;;;;;;;19.00;18.10;;;38.60;27.10;;;;;;4914741;29;20561;-77
2023/06/18 10:39:27;;;;;;;19.60;18.70;;;39.00;26.90;;;;;;4914736;29;20513;-78
2023/06/18 10:41:54;;;;;;;19.00;18.10;;;40.00;26.30;;;;;;4914343;29;20493;-78
2023/06/18 10:44:34;;;;;;;19.87;18.97;;;40.60;25.10;;;;;;4914480;29;20460;-77
2023/06/18 10:47:21;;;;;;;18.30;17.53;;;39.90;26.30;;;;;;4914176;29;20457;-77
2023/06/18 10:50:12;;;;;;;18.63;17.73;;;40.00;26.30;;;;;;4914329;29;20457;-78
2023/06/18 10:52:40;;;;;;;19.10;18.30;;;40.10;25.60;;;;;;4914002;29;20485;-78
2023/06/18 10:55:08;;;;;;;19.63;18.63;;;40.50;25.40;;;;;;4914400;29;20606;-78
2023/06/18 10:57:37;;;;;;;18.63;17.77;;;40.80;24.90;;;;;;4914355;29;20580;-78
2023/06/18 11:00:16;;;;;;;19.10;18.20;;;40.00;24.90;;;;;;4914239;29;20457;-77
2023/06/18 11:02:42;;;;;;;17.70;16.90;;;39.40;25.20;;;;;;4914217;29;20562;-77
2023/06/18 11:05:17;;;;;;;18.60;17.53;;;38.40;26.00;;;;;;4914486;29;20459;-78
2023/06/18 11:07:44;;;;;;;17.70;17.00;;;38.70;26.40;;;;;;4914152;29;20484;-77
2023/06/18 11:10:11;;;;;;;18.63;17.80;;;39.80;25.60;;;;;;4914090;29;20453;-76
2023/06/18 11:12:39;;;;;;;18.53;17.50;;;40.40;24.90;;;;;;4914099;29;20461;-76
2023/06/18 11:15:11;;;;;;;19.00;18.10;;;41.10;24.70;;;;;;4913768;29;20553;-76
2023/06/18 11:17:39;;;;;;;17.90;17.20;;;41.10;24.10;;;;;;4913940;29;20487;-76
2023/06/18 11:20:07;;;;;;;17.67;16.77;;;40.80;24.50;;;;;;4913794;29;20452;-76
2023/06/18 11:22:37;;;;;;;17.87;17.00;;;41.50;24.50;;;;;;4913534;29;20497;-76
2023/06/18 11:25:06;;;;;;;18.50;17.70;;;41.20;24.40;;;;;;4913674;29;20457;-76
2023/06/18 11:27:34;;;;;;;17.73;17.03;;;40.10;24.50;;;;;;4913704;29;20537;-77
2023/06/18 11:30:00;;;;;;;18.50;17.60;;;39.90;24.80;;;;;;4913595;29;20482;-76
2023/06/18 11:32:28;;;;;;;17.77;16.97;;;39.30;25.50;;;;;;4913647;29;20521;-76
2023/06/18 11:34:55;;;;;;;17.57;16.77;;;39.00;26.20;;;;;;4913500;29;20457;-76
2023/06/18 11:37:24;;;;;;;17.03;16.23;;;39.60;25.90;;;;;;4913290;29;20829;-77
2023/06/18 11:39:53;;;;;;;17.37;16.67;;;40.10;25.00;;;;;;4913356;29;20553;-76
2023/06/18 11:42:21;;;;;;;18.50;17.70;;;41.10;24.60;;;;;;4913411;29;20920;-77
2023/06/18 11:44:49;;;;;;;18.57;17.77;;;42.00;23.70;;;;;;4913444;29;20458;-76
2023/06/18 11:47:16;;;;;;;18.57;17.77;;;42.10;23.20;;;;;;4913364;29;20457;-77
2023/06/18 11:49:43;;;;;;;19.10;18.30;;;41.20;23.80;;;;;;4913302;29;20533;-76
2023/06/18 11:52:10;;;;;;;18.10;17.10;;;40.50;24.40;;;;;;4913082;29;20510;-76
2023/06/18 11:54:39;;;;;;;17.40;16.70;;;39.30;25.00;;;;;;4913112;29;20608;-77
2023/06/18 11:57:10;;;;;;;17.60;16.90;;;40.20;24.60;;;;;;4913069;29;20953;-78
2023/06/18 11:59:37;;;;;;;17.70;16.73;;;40.90;24.10;;;;;;4913311;29;20457;-78
2023/06/18 12:02:11;;;;;;;16.70;15.97;;;41.10;24.00;;;;;;4913575;29;20557;-77
2023/06/18 12:04:38;;;;;;;16.20;15.50;;;40.50;24.10;;;;;;4913460;29;20548;-78
2023/06/18 12:07:05;;;;;;;16.20;15.33;;;38.90;24.70;;;;;;4913085;29;20461;-77
2023/06/18 12:09:33;;;;;;;16.57;15.87;;;38.10;25.20;;;;;;4913326;29;20545;-78
2023/06/18 12:12:08;;;;;;;16.17;15.57;;;38.80;25.10;;;;;;4913091;29;20585;-76
2023/06/18 12:14:40;;;;;;;16.17;15.47;;;38.80;24.80;;;;;;4913145;29;20457;-76
2023/06/18 12:17:12;;;;;;;17.73;17.03;;;39.10;24.70;;;;;;4912906;29;20453;-77
2023/06/18 12:19:41;;;;;;;18.60;17.70;;;39.50;24.80;;;;;;4913000;29;20466;-77
2023/06/18 12:22:09;;;;;;;17.43;16.63;;;39.90;24.80;;;;;;4912649;29;20492;-76
2023/06/18 12:24:36;;;;;;;17.40;16.60;;;40.30;24.90;;;;;;4913001;29;20552;-77
2023/06/18 12:27:03;;;;;;;17.30;16.50;;;40.10;24.20;;;;;;4913027;29;20520;-77
2023/06/18 12:29:30;;;;;;;17.40;16.60;;;39.60;24.30;;;;;;4913117;29;20458;-78
2023/06/18 12:32:09;;;;;;;17.93;17.13;;;40.30;24.30;;;;;;4913171;29;20454;-77